Terminal Aerodrome Forecast
Issued by NWS North Platte, NE

Home | Current Version | Previous Version | Text Only | Print | Product List | Glossary On
Versions: 1 2 3 4 5 6 7 8 9 10 11 12
000
FTUS43 KLBF 021100
TAFVTN
TAF
KVTN 021130Z 0212/0312 VRB05KT P6SM BKN120
     FM021500 33010KT P6SM BKN080
     FM030000 VRB03KT P6SM BKN100=

USA.gov is the U.S. government's official web portal to all federal, state and local government web resources and services.